Time;durP1;ratioP1;P1;durP2;ratioP2;P2;SDS_P1;SDS_P2;PMS_P1;PMS_P2;Temp;Humidity;BMP_temperature;BMP_pressure;BME280_temperature;BME280_humidity;BME280_pressure;Samples;Min_cycle;Max_cycle;Signal;HPM_P1;HPM_P2
2023/02/26 00:02:14;;;;;;;5.53;1.50;;;;;;;-2.34;100.00;101422.78;7396837;19;20197;-43
2023/02/26 00:04:44;;;;;;;4.75;1.50;;;;;;;-2.34;100.00;101427.84;7400203;19;20175;-41
2023/02/26 00:07:14;;;;;;;3.55;1.33;;;;;;;-2.33;100.00;101434.69;7394479;19;20227;-41
2023/02/26 00:09:46;;;;;;;6.70;1.48;;;;;;;-2.33;100.00;101436.31;7399707;19;20150;-45
2023/02/26 00:12:16;;;;;;;3.80;1.60;;;;;;;-2.32;100.00;101445.69;7395371;19;21208;-44
2023/02/26 00:14:46;;;;;;;6.00;1.33;;;;;;;-2.32;100.00;101448.22;7399685;19;20142;-42
2023/02/26 00:17:34;;;;;;;6.90;1.55;;;;;;;-2.37;100.00;101460.38;7395456;19;20211;-42
2023/02/26 00:20:05;;;;;;;4.53;1.58;;;;;;;-2.38;100.00;101470.31;7400471;19;20135;-44
2023/02/26 00:22:36;;;;;;;4.30;1.15;;;;;;;-2.34;100.00;101469.91;7397389;19;20186;-43
2023/02/26 00:25:09;;;;;;;2.60;1.30;;;;;;;-2.37;100.00;101483.13;7400133;19;20778;-44
2023/02/26 00:27:39;;;;;;;10.23;1.70;;;;;;;-2.39;100.00;101484.59;7395245;19;20186;-43
2023/02/26 00:30:10;;;;;;;5.57;1.45;;;;;;;-2.39;100.00;101493.81;7401252;19;20161;-43
2023/02/26 00:32:41;;;;;;;4.15;1.30;;;;;;;-2.43;100.00;101497.66;7396040;19;20194;-42
2023/02/26 00:35:15;;;;;;;4.32;1.35;;;;;;;-2.42;100.00;101507.00;7398027;19;20179;-41
2023/02/26 00:37:58;;;;;;;5.32;1.55;;;;;;;-2.41;100.00;101516.38;7397185;19;20691;-42
2023/02/26 00:40:37;;;;;;;3.33;1.83;;;;;;;-2.14;100.00;101524.19;7400020;19;20154;-44
2023/02/26 00:43:08;;;;;;;7.07;2.03;;;;;;;-2.13;100.00;101531.06;7396230;19;20673;-44
2023/02/26 00:45:39;;;;;;;12.55;2.53;;;;;;;-2.04;100.00;101535.44;7398302;19;20210;-45
2023/02/26 00:48:21;;;;;;;10.77;2.20;;;;;;;-2.07;100.00;101552.84;7396696;19;20209;-40
2023/02/26 00:50:57;;;;;;;6.15;1.52;;;;;;;-2.11;100.00;101567.53;7396388;19;20143;-42
2023/02/26 00:53:30;;;;;;;4.55;1.30;;;;;;;-2.12;100.00;101574.22;7397526;19;20175;-41
2023/02/26 00:56:03;;;;;;;9.10;2.25;;;;;;;-2.15;100.00;101581.50;7396287;19;20181;-41
2023/02/26 00:58:32;;;;;;;18.77;5.50;;;;;;;-2.06;100.00;101582.44;7398434;19;20471;-44
2023/02/26 01:01:02;;;;;;;9.23;2.40;;;;;;;-2.00;100.00;101592.31;7396637;19;20642;-44
2023/02/26 01:03:33;;;;;;;5.55;1.35;;;;;;;-2.05;100.00;101598.53;7397593;19;20131;-43
2023/02/26 01:06:11;;;;;;;3.17;1.20;;;;;;;-2.12;100.00;101619.75;7396107;19;20670;-40
2023/02/26 01:08:46;;;;;;;5.70;1.38;;;;;;;-2.14;100.00;101616.16;7396027;19;20146;-45
2023/02/26 01:11:19;;;;;;;3.40;1.05;;;;;;;-2.14;100.00;101628.81;7394187;19;20205;-44
2023/02/26 01:13:49;;;;;;;6.13;1.52;;;;;;;-2.10;100.00;101641.03;7397241;19;20150;-40
2023/02/26 01:16:24;;;;;;;5.88;1.52;;;;;;;-2.09;100.00;101650.44;7393229;19;20212;-44
2023/02/26 01:18:58;;;;;;;3.47;1.13;;;;;;;-2.07;100.00;101665.75;7398984;19;20146;-43
2023/02/26 01:21:30;;;;;;;5.88;1.27;;;;;;;-2.02;100.00;101673.84;7394681;19;20582;-41
2023/02/26 01:24:01;;;;;;;5.43;1.83;;;;;;;-1.99;100.00;101689.34;7398178;19;20146;-44
2023/02/26 01:26:34;;;;;;;5.15;1.50;;;;;;;-2.06;100.00;101687.78;7394286;19;20619;-43
2023/02/26 01:29:04;;;;;;;3.55;1.00;;;;;;;-2.08;100.00;101695.22;7398141;19;20151;-41
2023/02/26 01:31:48;;;;;;;2.85;1.17;;;;;;;-2.08;100.00;101697.75;7394426;19;20193;-38
2023/02/26 01:34:21;;;;;;;3.65;1.20;;;;;;;-2.07;100.00;101703.69;7398305;19;20142;-43
2023/02/26 01:36:54;;;;;;;5.15;1.42;;;;;;;-2.01;100.00;101711.06;7394462;19;20295;-44
2023/02/26 01:39:30;;;;;;;4.55;1.13;;;;;;;-2.03;100.00;101718.47;7395869;19;20611;-41
2023/02/26 01:42:07;;;;;;;2.75;0.90;;;;;;;-2.13;100.00;101731.75;7394321;19;20189;-43
2023/02/26 01:44:40;;;;;;;2.75;0.85;;;;;;;-2.17;100.00;101739.72;7396820;19;20138;-43
2023/02/26 01:47:18;;;;;;;5.13;1.52;;;;;;;-2.19;100.00;101731.97;7394374;19;20202;-41
2023/02/26 01:49:48;;;;;;;7.28;1.23;;;;;;;-2.15;100.00;101735.75;7397069;19;20146;-43
2023/02/26 01:52:48;;;;;;;3.65;1.55;;;;;;;-2.21;100.00;101735.97;7392221;19;20201;-39
2023/02/26 01:55:19;;;;;;;3.95;0.93;;;;;;;-2.24;100.00;101738.19;7395845;19;20513;-42
2023/02/26 01:57:51;;;;;;;3.05;0.90;;;;;;;-2.26;100.00;101739.63;7394683;19;20215;-41
2023/02/26 02:00:21;;;;;;;2.70;1.00;;;;;;;-2.27;100.00;101736.94;7395843;19;20618;-44
2023/02/26 02:02:51;;;;;;;6.63;1.30;;;;;;;-2.32;100.00;101742.41;7392577;19;20211;-42
2023/02/26 02:05:25;;;;;;;4.88;1.15;;;;;;;-2.27;100.00;101742.88;7391078;19;20146;-44
2023/02/26 02:07:55;;;;;;;2.75;1.30;;;;;;;-2.27;100.00;101754.66;7392064;19;20198;-44
2023/02/26 02:10:25;;;;;;;4.65;1.27;;;;;;;-2.34;100.00;101760.66;7395831;19;20146;-42
2023/02/26 02:13:05;;;;;;;9.65;1.70;;;;;;;-2.32;100.00;101760.09;7392915;19;20186;-40
2023/02/26 02:15:41;;;;;;;6.28;1.55;;;;;;;-2.38;100.00;101771.16;7395379;19;20182;-41
2023/02/26 02:18:16;;;;;;;6.28;1.73;;;;;;;-2.37;100.00;101773.84;7394289;19;20184;-42
2023/02/26 02:21:11;;;;;;;2.45;0.80;;;;;;;-2.31;100.00;101774.53;7392148;19;20165;-44
2023/02/26 02:23:44;;;;;;;7.25;1.30;;;;;;;-2.37;100.00;101778.91;7390970;19;20202;-41
2023/02/26 02:26:39;;;;;;;4.45;1.25;;;;;;;-2.40;100.00;101771.00;7392066;19;20241;-40
2023/02/26 02:29:47;;;;;;;2.70;1.38;;;;;;;-2.56;100.00;101777.63;7394887;19;20147;-42
2023/02/26 02:32:22;;;;;;;6.65;1.50;;;;;;;-2.57;100.00;101781.75;7391879;19;20190;-38
2023/02/26 02:34:56;;;;;;;11.13;1.33;;;;;;;-2.61;100.00;101782.16;7395959;19;20142;-44
2023/02/26 02:37:29;;;;;;;3.88;1.10;;;;;;;-2.60;100.00;101782.31;7392632;19;20194;-43
2023/02/26 02:40:01;;;;;;;11.00;1.92;;;;;;;-2.52;100.00;101780.63;7396200;19;20134;-41
2023/02/26 02:42:35;;;;;;;2.53;0.95;;;;;;;-2.45;100.00;101788.16;7391649;19;20194;-44
2023/02/26 02:45:10;;;;;;;2.40;0.90;;;;;;;-2.51;100.00;101787.50;7395563;19;20146;-41
2023/02/26 02:47:45;;;;;;;5.25;1.23;;;;;;;-2.58;100.00;101795.13;7390564;19;20189;-44
2023/02/26 02:50:18;;;;;;;4.00;1.00;;;;;;;-2.49;100.00;101795.25;7394199;19;20130;-45
2023/02/26 02:52:52;;;;;;;3.28;1.10;;;;;;;-2.44;100.00;101799.19;7392537;19;20190;-41
2023/02/26 02:55:24;;;;;;;3.72;1.30;;;;;;;-2.56;100.00;101792.78;7394227;19;20130;-43
2023/02/26 02:57:58;;;;;;;3.15;1.13;;;;;;;-2.58;100.00;101807.75;7392266;19;20219;-43
2023/02/26 03:00:29;;;;;;;4.75;1.40;;;;;;;-2.59;100.00;101806.88;7394385;19;20138;-41
2023/02/26 03:03:10;;;;;;;7.80;1.20;;;;;;;-2.56;100.00;101807.94;7391496;19;20186;-43
2023/02/26 03:05:39;;;;;;;3.50;1.10;;;;;;;-2.64;100.00;101823.16;7394139;19;20185;-43
2023/02/26 03:08:12;;;;;;;2.47;0.90;;;;;;;-2.72;100.00;101823.94;7393868;19;20190;-40
2023/02/26 03:10:42;;;;;;;6.40;1.52;;;;;;;-2.69;100.00;101830.94;7394467;19;20652;-40
2023/02/26 03:13:17;;;;;;;5.10;1.10;;;;;;;-2.77;100.00;101827.56;7392009;19;20649;-45
2023/02/26 03:15:57;;;;;;;7.55;1.35;;;;;;;-2.67;100.00;101830.38;7391566;19;20181;-46
2023/02/26 03:18:36;;;;;;;8.82;1.23;;;;;;;-2.71;100.00;101840.88;7393165;19;20262;-41
2023/02/26 03:21:10;;;;;;;2.95;1.20;;;;;;;-2.71;100.00;101838.34;7391665;19;20196;-44
2023/02/26 03:23:45;;;;;;;4.95;1.05;;;;;;;-2.69;100.00;101844.47;7393751;19;20620;-43
2023/02/26 03:26:20;;;;;;;5.10;1.90;;;;;;;-2.64;100.00;101845.91;7390423;19;20197;-44
2023/02/26 03:28:53;;;;;;;3.88;1.10;;;;;;;-2.56;100.00;101853.44;7393514;19;20142;-39
2023/02/26 03:31:27;;;;;;;10.10;1.73;;;;;;;-2.56;100.00;101863.53;7394769;19;20194;-42
2023/02/26 03:34:03;;;;;;;4.78;1.23;;;;;;;-2.53;100.00;101859.72;7401853;19;20794;-41
2023/02/26 03:36:37;;;;;;;10.40;2.50;;;;;;;-2.45;100.00;101870.72;7397434;19;20205;-45
2023/02/26 03:39:11;;;;;;;6.18;2.05;;;;;;;-2.51;100.00;101877.59;7402583;19;20151;-44
2023/02/26 03:41:44;;;;;;;4.82;1.60;;;;;;;-2.56;100.00;101873.66;7397619;19;20214;-41
2023/02/26 03:44:16;;;;;;;2.65;1.30;;;;;;;-2.59;100.00;101889.38;7399481;19;20168;-43
2023/02/26 03:46:48;;;;;;;3.05;1.20;;;;;;;-2.52;100.00;101890.97;7395477;19;20223;-45
2023/02/26 03:49:23;;;;;;;5.90;2.15;;;;;;;-2.59;100.00;101892.81;7398354;19;20149;-45
2023/02/26 03:51:53;;;;;;;3.67;1.50;;;;;;;-2.53;100.00;101899.25;7397349;19;20214;-44
2023/02/26 03:54:25;;;;;;;2.97;0.95;;;;;;;-2.52;100.00;101901.09;7400733;19;20139;-41
2023/02/26 03:56:55;;;;;;;2.03;0.90;;;;;;;-2.51;100.00;101911.34;7397912;19;20202;-43
2023/02/26 03:59:25;;;;;;;5.43;1.40;;;;;;;-2.64;100.00;101908.16;7400138;19;20150;-38
2023/02/26 04:01:59;;;;;;;2.00;0.95;;;;;;;-2.63;100.00;101917.53;7397737;19;20217;-44
2023/02/26 04:04:34;;;;;;;1.80;0.73;;;;;;;-2.70;100.00;101918.47;7400032;19;20138;-45
2023/02/26 04:07:04;;;;;;;4.50;1.02;;;;;;;-2.70;100.00;101923.53;7397830;19;20198;-42
2023/02/26 04:09:33;;;;;;;3.50;0.88;;;;;;;-2.83;100.00;101933.84;7398391;19;20127;-41
2023/02/26 04:12:03;;;;;;;3.22;1.23;;;;;;;-2.97;100.00;101934.81;7397373;19;20194;-44
2023/02/26 04:14:32;;;;;;;2.15;0.80;;;;;;;-3.12;100.00;101937.34;7399588;19;20139;-43
2023/02/26 04:17:02;;;;;;;3.22;1.00;;;;;;;-3.15;100.00;101938.63;7397179;19;20201;-44
2023/02/26 04:19:34;;;;;;;8.82;1.27;;;;;;;-3.21;100.00;101942.97;7399764;19;20139;-45
2023/02/26 04:22:03;;;;;;;5.13;1.60;;;;;;;-3.20;100.00;101945.69;7397460;19;20218;-40
2023/02/26 04:24:33;;;;;;;2.80;0.80;;;;;;;-3.36;100.00;101944.59;7399470;19;20147;-43
2023/02/26 04:27:02;;;;;;;8.32;1.42;;;;;;;-3.42;100.00;101943.19;7396687;19;20202;-39
2023/02/26 04:29:32;;;;;;;4.32;1.20;;;;;;;-3.47;100.00;101941.75;7398057;19;20624;-43
2023/02/26 04:32:01;;;;;;;2.72;1.08;;;;;;;-3.46;100.00;101951.13;7396612;19;20659;-44
2023/02/26 04:34:33;;;;;;;3.95;0.95;;;;;;;-3.50;100.00;101948.94;7398887;19;20163;-43
2023/02/26 04:37:03;;;;;;;4.82;1.10;;;;;;;-3.52;100.00;101946.22;7396720;19;20201;-41
2023/02/26 04:39:33;;;;;;;3.72;1.20;;;;;;;-3.57;100.00;101952.38;7392943;19;20202;-34
2023/02/26 04:42:03;;;;;;;3.42;0.93;;;;;;;-3.67;100.00;101950.41;7391996;19;20186;-36
2023/02/26 04:44:32;;;;;;;2.35;1.00;;;;;;;-3.64;100.00;101954.00;7397514;19;20138;-36
2023/02/26 04:47:02;;;;;;;5.38;1.35;;;;;;;-3.62;100.00;101957.59;7394058;19;20201;-36
2023/02/26 04:49:34;;;;;;;5.85;0.98;;;;;;;-3.60;100.00;101952.00;7396129;19;20181;-36
2023/02/26 04:52:04;;;;;;;5.38;1.35;;;;;;;-3.66;100.00;101959.78;7394530;19;20190;-35
2023/02/26 04:54:33;;;;;;;4.18;0.88;;;;;;;-3.66;100.00;101952.19;7397372;19;20206;-37
2023/02/26 04:57:03;;;;;;;8.57;1.30;;;;;;;-3.67;100.00;101969.69;7395375;19;20229;-34
2023/02/26 04:59:32;;;;;;;10.48;3.20;;;;;;;-3.59;100.00;101963.03;7396751;19;20166;-36
2023/02/26 05:02:01;;;;;;;3.88;1.10;;;;;;;-3.76;100.00;101969.47;7394077;19;20222;-36
2023/02/26 05:04:34;;;;;;;4.05;2.05;;;;;;;-3.77;100.00;101970.22;7396918;19;20136;-35
2023/02/26 05:07:03;;;;;;;2.97;1.20;;;;;;;-3.78;100.00;101965.88;7394937;19;20190;-35
2023/02/26 05:09:33;;;;;;;3.20;1.17;;;;;;;-3.85;100.00;101970.94;7395884;19;20189;-34
2023/02/26 05:12:02;;;;;;;4.00;1.17;;;;;;;-3.82;100.00;101974.72;7393999;19;20194;-36
2023/02/26 05:14:32;;;;;;;6.05;2.38;;;;;;;-3.77;100.00;101977.78;7396832;19;20482;-35
2023/02/26 05:17:01;;;;;;;9.02;1.05;;;;;;;-3.77;100.00;101977.78;7394195;19;20241;-35
2023/02/26 05:19:33;;;;;;;7.03;1.20;;;;;;;-3.84;100.00;101977.78;7396496;19;20214;-36
2023/02/26 05:22:02;;;;;;;7.47;2.00;;;;;;;-3.83;100.00;101982.09;7394054;19;20674;-35
2023/02/26 05:24:32;;;;;;;4.82;1.50;;;;;;;-3.86;100.00;101982.63;7396560;19;20130;-36
2023/02/26 05:27:01;;;;;;;3.65;1.65;;;;;;;-3.77;100.00;101992.91;7393812;19;20198;-43
2023/02/26 05:29:31;;;;;;;7.85;1.83;;;;;;;-3.77;100.00;101987.88;7395134;19;20178;-36
2023/02/26 05:32:00;;;;;;;5.90;2.00;;;;;;;-3.72;100.00;101994.38;7393308;19;20190;-34
2023/02/26 05:34:30;;;;;;;6.90;1.90;;;;;;;-3.73;100.00;101992.56;7395894;19;20145;-34
2023/02/26 05:37:02;;;;;;;2.70;1.00;;;;;;;-3.76;100.00;101993.81;7393204;19;20190;-35
2023/02/26 05:39:31;;;;;;;13.13;1.60;;;;;;;-3.77;100.00;101997.97;7394996;19;20186;-36
2023/02/26 05:42:01;;;;;;;7.65;1.10;;;;;;;-3.71;100.00;101998.69;7392988;19;20190;-36
2023/02/26 05:44:30;;;;;;;7.38;1.40;;;;;;;-3.68;100.00;102003.19;7395387;19;20139;-35
2023/02/26 05:47:00;;;;;;;4.00;1.85;;;;;;;-3.70;100.00;102010.56;7391582;19;20190;-34
2023/02/26 05:49:30;;;;;;;4.82;1.40;;;;;;;-3.63;100.00;102007.19;7394856;19;20182;-35
2023/02/26 05:52:02;;;;;;;3.45;0.88;;;;;;;-3.77;100.00;102003.00;7392693;19;20531;-36
2023/02/26 05:54:31;;;;;;;6.25;1.70;;;;;;;-3.84;100.00;102013.97;7393132;19;20139;-35
2023/02/26 05:57:01;;;;;;;5.93;1.25;;;;;;;-3.73;100.00;102015.28;7392728;19;20201;-36
2023/02/26 05:59:30;;;;;;;3.97;0.80;;;;;;;-3.68;100.00;102018.34;7395885;19;20647;-36
2023/02/26 06:02:00;;;;;;;3.35;0.98;;;;;;;-3.76;100.00;102019.94;7392388;19;20386;-36
2023/02/26 06:04:29;;;;;;;11.40;1.77;;;;;;;-3.74;100.00;102027.69;7394762;19;20548;-34
2023/02/26 06:07:01;;;;;;;6.13;2.65;;;;;;;-3.78;100.00;102036.53;7392072;19;20574;-35
2023/02/26 06:09:31;;;;;;;5.00;0.93;;;;;;;-3.85;100.00;102039.03;7394182;19;20178;-34
2023/02/26 06:12:00;;;;;;;5.50;1.05;;;;;;;-3.75;100.00;102041.91;7391928;19;20218;-35
2023/02/26 06:14:29;;;;;;;3.35;1.33;;;;;;;-3.81;100.00;102046.22;7394521;19;20145;-36
2023/02/26 06:16:59;;;;;;;5.10;2.60;;;;;;;-3.71;100.00;102044.09;7392156;19;20194;-35
2023/02/26 06:19:28;;;;;;;2.30;1.00;;;;;;;-3.76;100.00;102046.81;7394219;19;20527;-35
2023/02/26 06:21:58;;;;;;;5.15;1.88;;;;;;;-3.73;100.00;102048.06;7391543;19;20218;-35
2023/02/26 06:24:30;;;;;;;5.10;1.00;;;;;;;-3.71;100.00;102054.19;7394233;19;20163;-36
2023/02/26 06:26:59;;;;;;;12.18;1.40;;;;;;;-3.78;100.00;102059.22;7392200;19;20190;-36
2023/02/26 06:29:29;;;;;;;7.30;1.00;;;;;;;-3.85;100.00;102064.25;7393266;19;20139;-36
2023/02/26 06:31:58;;;;;;;7.03;0.73;;;;;;;-3.76;100.00;102070.38;7391121;19;20706;-36
2023/02/26 06:34:27;;;;;;;2.92;1.00;;;;;;;-3.84;100.00;102073.63;7393936;19;20138;-36
2023/02/26 06:36:57;;;;;;;4.07;1.20;;;;;;;-3.81;100.00;102076.50;7392109;19;20194;-36
2023/02/26 06:39:26;;;;;;;5.15;1.40;;;;;;;-3.79;100.00;102082.66;7392897;19;20822;-35
2023/02/26 06:41:58;;;;;;;3.38;1.02;;;;;;;-3.76;100.00;102087.16;7391254;19;20682;-34
2023/02/26 06:44:28;;;;;;;3.90;1.42;;;;;;;-3.70;100.00;102085.38;7393912;19;20131;-36
2023/02/26 06:46:57;;;;;;;3.42;1.40;;;;;;;-3.69;100.00;102085.53;7389657;19;20201;-35
2023/02/26 06:49:27;;;;;;;5.82;2.15;;;;;;;-3.61;100.00;102090.59;7392965;19;20164;-35
2023/02/26 06:51:56;;;;;;;5.30;1.73;;;;;;;-3.57;100.00;102105.41;7390200;19;20202;-34
2023/02/26 06:54:25;;;;;;;4.18;1.33;;;;;;;-3.57;100.00;102100.34;7393225;19;20151;-36
2023/02/26 06:56:56;;;;;;;7.65;1.45;;;;;;;-3.53;100.00;102100.03;7390636;19;20190;-36
2023/02/26 06:59:28;;;;;;;10.45;1.63;;;;;;;-3.48;100.00;102106.53;7393152;19;20155;-34
2023/02/26 07:01:58;;;;;;;5.53;1.50;;;;;;;-3.37;100.00;102106.88;7390511;19;20774;-34
2023/02/26 07:04:27;;;;;;;4.30;1.40;;;;;;;-3.34;100.00;102105.63;7392802;19;20198;-36
2023/02/26 07:06:57;;;;;;;3.15;1.02;;;;;;;-3.29;100.00;102121.31;7390875;19;20197;-35
2023/02/26 07:09:27;;;;;;;5.85;0.98;;;;;;;-3.26;100.00;102125.13;7392718;19;20161;-36
2023/02/26 07:11:56;;;;;;;5.07;0.80;;;;;;;-3.26;100.00;102134.31;7389365;19;20191;-35
2023/02/26 07:14:28;;;;;;;8.25;1.90;;;;;;;-3.20;100.00;102144.25;7392817;19;20179;-35
2023/02/26 07:16:58;;;;;;;4.40;0.93;;;;;;;-3.22;100.00;102148.22;7390787;19;20194;-35
2023/02/26 07:19:27;;;;;;;8.93;1.52;;;;;;;-3.25;100.00;102148.75;7392694;19;20142;-36
2023/02/26 07:21:57;;;;;;;4.32;1.17;;;;;;;-3.23;100.00;102142.25;7390340;19;20190;-34
2023/02/26 07:24:27;;;;;;;3.83;0.82;;;;;;;-3.23;100.00;102149.81;7392376;19;20155;-36
2023/02/26 07:26:56;;;;;;;3.17;1.17;;;;;;;-3.23;100.00;102147.28;7390303;19;20194;-36
2023/02/26 07:29:28;;;;;;;3.88;1.00;;;;;;;-3.21;100.00;102150.94;7392172;19;20353;-32
2023/02/26 07:31:57;;;;;;;7.53;1.40;;;;;;;-3.17;100.00;102150.56;7389279;19;20198;-32
2023/02/26 07:34:27;;;;;;;6.95;1.30;;;;;;;-3.16;100.00;102154.00;7392804;19;20604;-34
2023/02/26 07:36:57;;;;;;;9.63;2.47;;;;;;;-3.09;100.00;102154.00;7390543;19;20671;-33
2023/02/26 07:39:27;;;;;;;3.03;1.45;;;;;;;-3.01;100.00;102158.38;7391273;19;20513;-34
2023/02/26 07:41:57;;;;;;;5.55;1.90;;;;;;;-2.96;100.00;102156.38;7388906;19;20194;-33
2023/02/26 07:44:29;;;;;;;5.55;1.42;;;;;;;-2.83;100.00;102165.41;7391925;19;20508;-33
2023/02/26 07:46:58;;;;;;;6.43;1.73;;;;;;;-2.81;100.00;102158.91;7389056;19;20201;-33
2023/02/26 07:49:28;;;;;;;7.40;1.80;;;;;;;-2.75;100.00;102167.22;7391604;19;20178;-33
2023/02/26 07:51:57;;;;;;;3.55;1.27;;;;;;;-2.68;100.00;102162.16;7388629;19;20190;-33
2023/02/26 07:54:27;;;;;;;5.57;1.38;;;;;;;-2.54;100.00;102170.44;7391649;19;20159;-33
2023/02/26 07:56:56;;;;;;;7.72;1.58;;;;;;;-2.52;100.00;102177.50;7389229;19;20198;-36
2023/02/26 07:59:28;;;;;;;5.72;1.67;;;;;;;-2.41;100.00;102180.38;7391296;19;20138;-34
2023/02/26 08:01:58;;;;;;;4.38;1.60;;;;;;;-2.34;100.00;102182.91;7388593;19;20218;-32
2023/02/26 08:04:27;;;;;;;5.63;1.92;;;;;;;-2.28;100.00;102182.69;7390906;19;20135;-33
2023/02/26 08:06:57;;;;;;;9.63;1.50;;;;;;;-2.17;100.00;102185.78;7389183;19;20628;-34
2023/02/26 08:09:26;;;;;;;6.68;1.48;;;;;;;-2.04;100.00;102188.06;7391060;19;20482;-32
2023/02/26 08:11:56;;;;;;;4.18;1.17;;;;;;;-1.92;100.00;102187.69;7387920;19;20195;-33
2023/02/26 08:14:25;;;;;;;7.63;3.28;;;;;;;-1.77;100.00;102194.53;7391019;19;20139;-33
2023/02/26 08:16:57;;;;;;;7.30;1.48;;;;;;;-1.75;100.00;102203.91;7388550;19;20194;-33
2023/02/26 08:19:27;;;;;;;6.85;1.40;;;;;;;-1.72;100.00;102211.84;7398082;19;20160;-32
2023/02/26 08:21:56;;;;;;;7.85;1.67;;;;;;;-1.64;100.00;102216.19;7395805;19;20205;-34
2023/02/26 08:24:26;;;;;;;7.25;2.00;;;;;;;-1.60;100.00;102225.91;7398186;19;20626;-34
2023/02/26 08:26:55;;;;;;;2.80;1.38;;;;;;;-1.60;100.00;102227.56;7396157;19;20222;-34
2023/02/26 08:29:25;;;;;;;5.68;1.75;;;;;;;-1.55;100.00;102236.56;7398010;19;20138;-34
2023/02/26 08:31:57;;;;;;;5.07;2.03;;;;;;;-1.52;100.00;102242.91;7395058;19;20194;-34
2023/02/26 08:34:27;;;;;;;5.80;1.77;;;;;;;-1.54;100.00;102246.84;7397462;19;20159;-33
2023/02/26 08:36:56;;;;;;;7.88;2.00;;;;;;;-1.44;100.00;102253.00;7395322;19;20186;-34
2023/02/26 08:39:26;;;;;;;6.88;1.67;;;;;;;-1.34;100.00;102253.28;7396572;19;20145;-34
2023/02/26 08:41:55;;;;;;;3.63;1.30;;;;;;;-1.30;100.00;102254.53;7394926;19;20194;-35
2023/02/26 08:44:28;;;;;;;4.03;1.33;;;;;;;-1.20;100.00;102259.94;7397107;19;20135;-34
2023/02/26 08:47:00;;;;;;;4.03;1.58;;;;;;;-1.12;100.00;102265.88;7393909;19;20201;-33
2023/02/26 08:49:29;;;;;;;5.82;1.63;;;;;;;-1.12;100.00;102268.41;7395896;19;20159;-32
2023/02/26 08:51:58;;;;;;;5.65;1.50;;;;;;;-1.06;100.00;102269.09;7393387;19;20209;-32
2023/02/26 08:54:28;;;;;;;5.40;1.40;;;;;;;-1.03;100.00;102266.91;7397178;19;20142;-35
2023/02/26 08:56:57;;;;;;;5.78;1.58;;;;;;;-0.90;100.00;102278.41;7394109;19;20190;-32
2023/02/26 08:59:27;;;;;;;4.32;1.50;;;;;;;-0.84;100.00;102282.56;7396511;19;20858;-36
2023/02/26 09:01:59;;;;;;;6.47;2.10;;;;;;;-0.72;100.00;102272.88;7392226;19;20197;-34
2023/02/26 09:04:29;;;;;;;8.02;2.90;;;;;;;-0.60;100.00;102277.53;7396527;19;20143;-36
2023/02/26 09:06:59;;;;;;;8.32;2.10;;;;;;;-0.46;100.00;102274.88;7392847;19;20194;-36
2023/02/26 09:09:28;;;;;;;6.63;1.55;;;;;;;-0.35;100.00;102271.00;7396150;19;20159;-36
2023/02/26 09:11:58;;;;;;;5.57;1.08;;;;;;;-0.30;100.00;102262.25;7392379;19;20198;-34
2023/02/26 09:14:28;;;;;;;2.08;0.70;;;;;;;-0.14;100.00;102254.66;7396633;19;20151;-35
2023/02/26 09:17:00;;;;;;;5.93;1.02;;;;;;;-0.05;100.00;102247.16;7393650;19;20197;-36
2023/02/26 09:19:29;;;;;;;3.53;1.00;;;;;;;0.06;100.00;102234.75;7396007;19;20138;-36
2023/02/26 09:21:59;;;;;;;4.55;0.80;;;;;;;0.10;100.00;102219.13;7394113;19;20197;-36
2023/02/26 09:24:28;;;;;;;4.15;1.10;;;;;;;0.10;100.00;102214.91;7395866;19;20159;-36
2023/02/26 09:26:58;;;;;;;4.10;0.80;;;;;;;0.11;100.00;102200.59;7393705;19;20285;-36
2023/02/26 09:29:27;;;;;;;3.90;1.40;;;;;;;0.19;100.00;102193.78;7395509;19;20163;-36
2023/02/26 09:32:00;;;;;;;4.43;1.43;;;;;;;0.20;100.00;102191.41;7392596;19;20459;-36
2023/02/26 09:34:30;;;;;;;3.55;0.80;;;;;;;0.32;100.00;102180.78;7395685;19;20399;-36
2023/02/26 09:36:59;;;;;;;4.38;1.50;;;;;;;0.26;100.00;102174.31;7393712;19;20187;-36
2023/02/26 09:39:29;;;;;;;2.70;0.90;;;;;;;0.22;100.00;102163.66;7395267;19;20171;-36
2023/02/26 09:42:01;;;;;;;4.43;1.30;;;;;;;0.08;100.00;102168.19;7392838;19;20198;-40
2023/02/26 09:44:32;;;;;;;5.83;1.37;;;;;;;0.10;100.00;102174.31;7395438;19;20135;-38
2023/02/26 09:47:08;;;;;;;5.07;1.40;;;;;;;0.21;100.00;102182.19;7392814;19;20464;-37
2023/02/26 09:49:49;;;;;;;6.22;1.27;;;;;;;0.28;100.00;102182.09;7394926;19;20419;-35
2023/02/26 09:52:23;;;;;;;6.70;2.25;;;;;;;0.46;100.00;102190.75;7390350;19;20192;-37
2023/02/26 09:54:55;;;;;;;11.38;1.85;;;;;;;0.56;100.00;102185.00;7393767;19;20167;-37
2023/02/26 09:57:32;;;;;;;5.25;1.38;;;;;;;0.66;100.00;102175.06;7392268;19;20545;-37
2023/02/26 10:00:02;;;;;;;4.27;1.07;;;;;;;0.70;100.00;102171.19;7395302;19;20186;-38
2023/02/26 10:02:39;;;;;;;5.27;0.97;;;;;;;0.77;100.00;102182.91;7391884;19;20447;-36
2023/02/26 10:05:19;;;;;;;4.93;1.00;;;;;;;0.87;100.00;102175.50;7396127;19;20418;-38
2023/02/26 10:07:55;;;;;;;6.70;2.10;;;;;;;0.82;100.00;102161.41;7391208;19;20438;-38
2023/02/26 10:10:31;;;;;;;3.97;1.20;;;;;;;0.97;100.00;102163.75;7393694;19;20438;-38
2023/02/26 10:13:01;;;;;;;10.57;1.77;;;;;;;1.09;100.00;102172.63;7391298;19;20193;-36
2023/02/26 10:15:34;;;;;;;4.20;0.90;;;;;;;1.17;100.00;102161.59;7394229;19;20403;-36
2023/02/26 10:18:11;;;;;;;4.17;1.00;;;;;;;1.16;100.00;102154.72;7392463;19;20446;-37
2023/02/26 10:20:45;;;;;;;2.33;0.70;;;;;;;1.21;100.00;102158.66;7393464;19;20462;-36
2023/02/26 10:23:21;;;;;;;3.20;0.93;;;;;;;1.23;100.00;102165.53;7392292;19;20442;-36
2023/02/26 10:25:54;;;;;;;3.20;0.90;;;;;;;1.21;100.00;102152.66;7391292;19;20407;-35
2023/02/26 10:28:39;;;;;;;6.43;1.30;;;;;;;1.23;100.00;102166.41;7393291;19;20405;-36
2023/02/26 10:31:15;;;;;;;3.97;0.90;;;;;;;1.26;100.00;102165.81;7390896;19;21026;-34
2023/02/26 10:33:56;;;;;;;2.13;0.70;;;;;;;1.50;100.00;102175.06;7392108;19;20439;-36
2023/02/26 10:36:28;;;;;;;2.57;1.03;;;;;;;1.70;100.00;102187.22;7390560;19;20439;-36
2023/02/26 10:39:02;;;;;;;4.30;1.40;;;;;;;1.47;100.00;102173.09;7393937;19;20468;-35
2023/02/26 10:41:33;;;;;;;7.63;1.20;;;;;;;1.53;100.00;102171.94;7387077;19;20966;-35
2023/02/26 10:44:08;;;;;;;4.37;1.20;;;;;;;1.57;100.00;102189.28;7394097;19;21129;-36
2023/02/26 10:46:45;;;;;;;4.40;1.10;;;;;;;1.67;100.00;102196.19;7390271;19;20818;-34
2023/02/26 10:49:38;;;;;;;5.67;1.67;;;;;;;1.78;100.00;102210.03;7393097;19;20440;-35
2023/02/26 10:52:14;;;;;;;4.23;1.13;;;;;;;1.78;100.00;102193.09;7389713;19;20464;-34
2023/02/26 10:54:50;;;;;;;6.60;1.33;;;;;;;1.73;100.00;102177.38;7394068;19;20487;-35
2023/02/26 10:57:24;;;;;;;2.70;1.23;;;;;;;1.74;100.00;102158.81;7389993;19;20439;-34
2023/02/26 10:59:54;;;;;;;4.77;1.00;;;;;;;1.84;100.00;102147.91;7393045;19;20796;-36
2023/02/26 11:02:38;;;;;;;3.40;0.93;;;;;;;2.02;100.00;102146.25;7389220;19;20435;-36
2023/02/26 11:05:21;;;;;;;3.10;0.80;;;;;;;1.89;100.00;102133.06;7393904;19;20452;-35
2023/02/26 11:07:52;;;;;;;12.07;1.97;;;;;;;2.08;100.00;102143.44;7390609;19;20821;-36
2023/02/26 11:10:25;;;;;;;9.37;4.40;;;;;;;2.25;100.00;102137.44;7391625;19;20435;-36
2023/02/26 11:12:54;;;;;;;9.13;2.90;;;;;;;2.31;100.00;102138.81;7388740;19;20821;-36
2023/02/26 11:15:27;;;;;;;6.03;0.97;;;;;;;2.33;100.00;102127.09;7392557;19;20403;-34
2023/02/26 11:17:59;;;;;;;2.30;0.77;;;;;;;2.25;100.00;102128.94;7390245;19;20816;-36
2023/02/26 11:20:36;;;;;;;6.60;0.97;;;;;;;2.20;100.00;102130.13;7390815;19;20466;-33
2023/02/26 11:23:09;;;;;;;4.70;1.10;;;;;;;2.17;100.00;102140.91;7390266;19;20446;-33
2023/02/26 11:25:39;;;;;;;7.30;1.10;;;;;;;1.90;100.00;102152.72;7390059;19;20411;-35
2023/02/26 11:28:22;;;;;;;3.80;1.20;;;;;;;1.89;100.00;102174.72;7392633;19;20439;-34
2023/02/26 11:30:53;;;;;;;3.93;1.10;;;;;;;1.94;100.00;102182.81;7389596;19;20959;-35
2023/02/26 11:33:29;;;;;;;4.70;1.63;;;;;;;1.87;100.00;102201.69;7389519;19;20403;-34
2023/02/26 11:36:03;;;;;;;5.97;1.20;;;;;;;1.91;100.00;102207.06;7389906;19;20399;-33
2023/02/26 11:38:33;;;;;;;8.43;1.00;;;;;;;1.85;100.00;102208.22;7392017;19;20407;-34
2023/02/26 11:41:03;;;;;;;5.30;1.30;;;;;;;1.88;100.00;102207.66;7388198;19;20975;-33
2023/02/26 11:43:38;;;;;;;3.50;1.10;;;;;;;2.04;100.00;102219.38;7391191;19;20452;-33